createdAt,value
2022-08-11T00:02:03.881Z,50.35
2022-08-11T00:04:39.465Z,50.59
2022-08-11T00:07:10.668Z,50.52
2022-08-11T00:09:47.925Z,50.32
2022-08-11T00:12:19.210Z,50.48
2022-08-11T00:14:57.061Z,50.28
2022-08-11T00:17:32.750Z,50.62
2022-08-11T00:20:13.697Z,50.58
2022-08-11T00:22:52.705Z,50.57
2022-08-11T00:25:23.216Z,50.44
2022-08-11T00:27:54.863Z,50.85
2022-08-11T00:30:24.343Z,50.73
2022-08-11T00:32:59.892Z,50.92
2022-08-11T00:35:52.470Z,51.13
2022-08-11T00:38:36.792Z,51.71
2022-08-11T00:41:32.821Z,51.60
2022-08-11T00:44:17.541Z,51.85
2022-08-11T00:47:00.781Z,51.68
2022-08-11T00:49:46.626Z,52.28
2022-08-11T00:52:34.941Z,52.56
2022-08-11T00:55:55.918Z,52.77
2022-08-11T00:59:35.587Z,52.89
2022-08-11T01:02:20.022Z,52.42
2022-08-11T01:05:31.989Z,52.13
2022-08-11T01:08:52.522Z,52.71
2022-08-11T01:12:10.832Z,53.14
2022-08-11T01:15:31.203Z,53.07
2022-08-11T01:18:54.798Z,53.31
2022-08-11T01:22:11.377Z,53.50
2022-08-11T01:25:57.136Z,54.23
2022-08-11T01:29:14.423Z,53.80
2022-08-11T01:32:53.358Z,54.24
2022-08-11T01:35:44.866Z,54.21
2022-08-11T01:39:11.761Z,53.82
2022-08-11T01:42:47.017Z,53.37
2022-08-11T01:45:31.693Z,53.48
2022-08-11T01:48:11.593Z,53.93
2022-08-11T01:51:16.928Z,54.64
2022-08-11T01:54:02.122Z,54.91
2022-08-11T01:56:58.892Z,54.82
2022-08-11T01:59:36.563Z,54.44
2022-08-11T02:02:46.149Z,54.49
2022-08-11T02:06:00.478Z,54.60
2022-08-11T02:08:53.311Z,54.33
2022-08-11T02:11:35.570Z,54.48
2022-08-11T02:14:30.696Z,55.12
2022-08-11T02:17:19.130Z,55.17
2022-08-11T02:20:19.931Z,55.50
2022-08-11T02:24:03.690Z,55.53
2022-08-11T02:26:16.175Z,55.79
2022-08-11T02:28:58.212Z,56.02
2022-08-11T02:32:15.596Z,55.95
2022-08-11T02:34:59.556Z,55.97
2022-08-11T02:37:45.424Z,56.08
2022-08-11T02:40:31.610Z,56.08
2022-08-11T02:43:19.087Z,56.44
2022-08-11T02:45:57.982Z,55.97
2022-08-11T02:49:01.148Z,55.98
2022-08-11T02:51:41.732Z,56.53
2022-08-11T02:54:22.062Z,55.89
2022-08-11T02:57:00.106Z,55.68
2022-08-11T02:59:52.610Z,56.10
2022-08-11T03:02:54.649Z,56.24
2022-08-11T03:05:43.324Z,56.17
2022-08-11T03:08:32.560Z,56.25
2022-08-11T03:11:30.324Z,55.95
2022-08-11T03:14:33.870Z,56.80
2022-08-11T03:17:23.662Z,56.99
2022-08-11T03:20:10.923Z,57.22
2022-08-11T03:22:53.888Z,57.24
2022-08-11T03:25:32.754Z,57.09
2022-08-11T03:28:18.334Z,56.79
2022-08-11T03:30:55.829Z,56.33
2022-08-11T03:33:48.300Z,56.43
2022-08-11T03:37:17.259Z,56.64
2022-08-11T03:39:59.352Z,56.55
2022-08-11T03:42:40.901Z,56.62
2022-08-11T03:45:26.331Z,56.81
2022-08-11T03:48:22.287Z,57.73
2022-08-11T03:51:15.477Z,58.94
2022-08-11T03:54:09.610Z,59.38
2022-08-11T03:57:27.064Z,59.54
2022-08-11T04:00:46.926Z,60.16
2022-08-11T04:04:21.032Z,60.56
2022-08-11T04:07:32.876Z,60.63
2022-08-11T04:10:38.421Z,60.75
2022-08-11T04:14:30.047Z,61.03
2022-08-11T04:17:57.838Z,61.33
2022-08-11T04:21:13.009Z,60.89
2022-08-11T04:24:38.558Z,59.94
2022-08-11T04:27:54.811Z,60.42
2022-08-11T04:30:40.518Z,60.04
2022-08-11T04:33:45.627Z,59.63
2022-08-11T04:37:30.700Z,60.23
2022-08-11T04:40:52.663Z,59.69
2022-08-11T04:44:24.613Z,59.98
2022-08-11T04:48:04.376Z,60.30
2022-08-11T04:51:08.917Z,59.92
2022-08-11T04:54:17.941Z,60.00
2022-08-11T04:57:07.467Z,60.11
2022-08-11T05:00:21.502Z,60.65
2022-08-11T05:03:31.417Z,61.25
2022-08-11T05:06:52.135Z,60.82
2022-08-11T05:09:42.620Z,61.10
2022-08-11T05:12:42.493Z,60.66
2022-08-11T05:15:42.484Z,60.48
2022-08-11T05:18:38.367Z,60.57
2022-08-11T05:21:29.466Z,60.36
2022-08-11T05:24:27.056Z,60.81
2022-08-11T05:27:14.833Z,60.00
2022-08-11T05:30:07.316Z,60.48
2022-08-11T05:33:02.029Z,60.88
2022-08-11T05:36:01.268Z,61.01
2022-08-11T05:38:51.988Z,61.22
2022-08-11T05:41:40.487Z,61.16
2022-08-11T05:44:29.192Z,61.28
2022-08-11T05:47:18.899Z,61.54
2022-08-11T05:50:13.533Z,61.07
2022-08-11T05:53:08.959Z,60.99
2022-08-11T05:56:03.212Z,61.33
2022-08-11T05:58:42.698Z,60.98
2022-08-11T06:01:15.218Z,60.99
2022-08-11T06:04:08.523Z,61.42
2022-08-11T06:06:44.838Z,61.43
2022-08-11T06:09:15.793Z,61.02
2022-08-11T06:11:45.501Z,61.42
2022-08-11T06:14:16.606Z,61.39
2022-08-11T06:16:50.345Z,61.50
2022-08-11T06:19:24.945Z,61.70
2022-08-11T06:21:54.794Z,61.54
2022-08-11T06:24:24.601Z,61.55
2022-08-11T06:27:11.751Z,61.43
2022-08-11T06:29:54.716Z,61.41
2022-08-11T06:32:32.882Z,61.46
2022-08-11T06:35:23.608Z,61.31
2022-08-11T06:38:09.369Z,61.20
2022-08-11T06:41:08.711Z,61.13
2022-08-11T06:43:55.434Z,61.23
2022-08-11T06:46:30.788Z,61.69
2022-08-11T06:49:03.628Z,61.48
2022-08-11T06:51:37.301Z,61.47
2022-08-11T06:54:15.580Z,61.14
2022-08-11T07:00:13.847Z,61.06
2022-08-11T07:02:53.428Z,60.14
2022-08-11T07:05:30.431Z,60.06
2022-08-11T07:09:25.722Z,60.11
2022-08-11T07:13:00.143Z,59.39
2022-08-11T07:16:10.535Z,59.57
2022-08-11T07:18:53.981Z,58.81
2022-08-11T07:22:01.445Z,58.75
2022-08-11T07:25:02.338Z,58.58
2022-08-11T07:28:07.003Z,58.52
2022-08-11T07:30:42.970Z,57.89
2022-08-11T07:34:05.786Z,57.72
2022-08-11T07:36:06.825Z,57.90
2022-08-11T07:38:47.780Z,56.69
2022-08-11T07:41:24.273Z,56.52
2022-08-11T07:44:09.260Z,52.73
2022-08-11T07:46:59.792Z,53.97
2022-08-11T07:49:51.433Z,53.70
2022-08-11T07:52:32.654Z,52.27
2022-08-11T07:55:06.440Z,50.85
2022-08-11T07:58:15.498Z,49.87
2022-08-11T08:01:21.622Z,47.08
2022-08-11T08:04:10.289Z,45.68
2022-08-11T08:06:58.433Z,44.51
2022-08-11T08:09:45.721Z,44.21
2022-08-11T08:12:33.668Z,42.98
2022-08-11T08:15:28.482Z,40.30
2022-08-11T08:18:09.698Z,41.37
2022-08-11T08:20:52.041Z,40.78
2022-08-11T08:23:33.755Z,41.01
2022-08-11T08:26:27.251Z,40.00
2022-08-11T08:29:19.253Z,40.01
2022-08-11T08:31:49.836Z,39.28
2022-08-11T08:34:20.407Z,38.22
2022-08-11T08:36:52.764Z,37.66
2022-08-11T08:39:23.259Z,36.85
2022-08-11T08:41:56.645Z,36.25
2022-08-11T08:44:38.204Z,35.10
2022-08-11T08:47:41.048Z,34.77
2022-08-11T08:50:16.651Z,33.75
2022-08-11T08:52:54.811Z,32.32
2022-08-11T08:55:25.240Z,32.70
2022-08-11T08:57:58.178Z,32.26
2022-08-11T09:00:38.813Z,31.99
2022-08-11T09:03:38.240Z,31.57
2022-08-11T09:05:59.649Z,31.20
2022-08-11T09:08:31.905Z,30.60
2022-08-11T09:11:20.665Z,30.38
2022-08-11T09:14:05.639Z,30.25
2022-08-11T09:16:39.217Z,29.50
2022-08-11T09:19:10.438Z,29.81
2022-08-11T09:21:49.651Z,29.00
2022-08-11T09:24:38.230Z,28.68
2022-08-11T09:27:08.794Z,28.82
2022-08-11T09:29:40.083Z,28.46
2022-08-11T09:32:09.831Z,28.43
2022-08-11T09:34:40.960Z,28.44
2022-08-11T09:37:54.806Z,27.96
2022-08-11T09:40:30.751Z,27.68
2022-08-11T09:43:20.114Z,25.95
2022-08-11T09:45:51.937Z,26.48
2022-08-11T09:48:23.374Z,25.92
2022-08-11T09:50:56.895Z,25.85
2022-08-11T09:53:37.424Z,25.96
2022-08-11T09:56:33.546Z,24.93
2022-08-11T09:59:04.610Z,24.73
2022-08-11T10:01:50.803Z,24.07
2022-08-11T10:04:32.979Z,23.66
2022-08-11T10:07:07.022Z,23.46
2022-08-11T10:09:42.170Z,23.25
2022-08-11T10:12:25.246Z,22.84
2022-08-11T10:15:17.840Z,22.34
2022-08-11T10:18:09.662Z,22.03
2022-08-11T10:20:41.918Z,22.61
2022-08-11T10:23:32.799Z,21.93
2022-08-11T10:26:20.715Z,22.25
2022-08-11T10:29:11.931Z,21.88
2022-08-11T10:31:59.299Z,22.05
2022-08-11T10:34:31.582Z,21.98
2022-08-11T10:37:03.291Z,22.26
2022-08-11T10:39:37.500Z,21.92
2022-08-11T10:42:47.713Z,22.03
2022-08-11T10:45:39.208Z,22.13
2022-08-11T10:48:15.767Z,21.91
2022-08-11T10:51:06.157Z,22.04
2022-08-11T10:53:53.992Z,22.14
2022-08-11T10:56:42.837Z,21.95
2022-08-11T10:59:12.444Z,21.90
2022-08-11T11:01:46.721Z,22.00
2022-08-11T11:04:19.927Z,21.42
2022-08-11T11:07:00.628Z,21.65
2022-08-11T11:09:33.301Z,21.26
2022-08-11T11:12:29.930Z,21.12
2022-08-11T11:15:25.766Z,20.94
2022-08-11T11:18:04.824Z,21.13
2022-08-11T11:20:45.053Z,21.35
2022-08-11T11:23:22.081Z,20.93
2022-08-11T11:26:34.978Z,21.06
2022-08-11T11:29:37.688Z,20.71
2022-08-11T11:32:29.361Z,20.41
2022-08-11T11:35:39.735Z,20.66
2022-08-11T11:38:14.136Z,20.68
2022-08-11T11:41:05.073Z,20.30
2022-08-11T11:43:37.866Z,20.01
2022-08-11T11:46:11.810Z,20.03
2022-08-11T11:48:43.324Z,20.32
2022-08-11T11:51:14.165Z,19.32
2022-08-11T11:53:48.142Z,19.11
2022-08-11T11:56:18.606Z,19.48
2022-08-11T11:59:06.911Z,19.46
2022-08-11T12:01:50.161Z,18.86
2022-08-11T12:04:23.467Z,19.72
2022-08-11T12:07:26.090Z,19.43
2022-08-11T12:10:03.687Z,19.38
2022-08-11T12:12:56.001Z,19.37
2022-08-11T12:16:03.606Z,19.08
2022-08-11T12:18:20.802Z,19.07
2022-08-11T12:20:50.663Z,19.10
2022-08-11T12:23:38.087Z,20.05
2022-08-11T12:26:27.274Z,20.04
2022-08-11T12:29:01.464Z,19.52
2022-08-11T12:31:34.907Z,19.36
2022-08-11T12:34:13.586Z,19.00
2022-08-11T12:36:49.659Z,19.85
2022-08-11T12:40:16.078Z,19.52
2022-08-11T12:42:55.513Z,19.64
2022-08-11T12:45:29.505Z,20.07
2022-08-11T12:48:59.758Z,19.71
2022-08-11T12:52:00.848Z,20.00
2022-08-11T12:54:41.953Z,19.48
2022-08-11T12:57:36.409Z,19.76
2022-08-11T13:00:28.286Z,20.04
2022-08-11T13:03:16.306Z,20.12
2022-08-11T13:05:49.818Z,20.29
2022-08-11T13:08:23.361Z,20.18
2022-08-11T13:11:12.337Z,19.62
2022-08-11T13:13:54.867Z,19.32
2022-08-11T13:16:32.257Z,19.33
2022-08-11T13:19:02.855Z,19.36
2022-08-11T13:21:33.610Z,19.12
2022-08-11T13:24:04.793Z,19.32
2022-08-11T13:26:47.443Z,19.63
2022-08-11T13:29:24.397Z,19.76
2022-08-11T13:31:57.072Z,19.65
2022-08-11T13:34:31.311Z,19.48
2022-08-11T13:37:05.135Z,19.22
2022-08-11T13:39:37.690Z,18.95
2022-08-11T13:42:10.157Z,19.26
2022-08-11T13:44:41.357Z,19.59
2022-08-11T13:47:16.764Z,19.33
2022-08-11T13:49:48.079Z,19.73
2022-08-11T13:52:25.299Z,19.22
2022-08-11T13:54:56.743Z,19.55
2022-08-11T13:58:18.179Z,19.49
2022-08-11T14:00:25.104Z,19.66
2022-08-11T14:02:59.451Z,19.24
2022-08-11T14:05:34.371Z,19.40
2022-08-11T14:08:32.423Z,18.45
2022-08-11T14:12:20.146Z,17.99
2022-08-11T14:14:20.300Z,18.42
2022-08-11T14:16:52.462Z,18.20
2022-08-11T14:19:27.338Z,17.69
2022-08-11T14:22:09.211Z,18.37
2022-08-11T14:24:39.797Z,17.79
2022-08-11T14:28:22.149Z,18.05
2022-08-11T14:30:03.111Z,18.28
2022-08-11T14:32:32.962Z,18.10
2022-08-11T14:35:03.738Z,17.92
2022-08-11T14:37:33.127Z,18.26
2022-08-11T14:40:24.262Z,17.69
2022-08-11T14:43:20.419Z,17.65
2022-08-11T14:46:29.404Z,17.02
2022-08-11T14:48:59.738Z,16.95
2022-08-11T14:51:30.112Z,16.57
2022-08-11T14:54:21.348Z,16.51
2022-08-11T14:56:49.739Z,16.46
2022-08-11T14:59:21.308Z,16.23
2022-08-11T15:02:08.227Z,15.91
2022-08-11T15:04:38.246Z,16.01
2022-08-11T15:07:16.825Z,15.67
2022-08-11T15:10:12.375Z,15.92
2022-08-11T15:12:45.413Z,15.62
2022-08-11T15:15:35.194Z,15.40
2022-08-11T15:18:15.944Z,15.24
2022-08-11T15:21:07.374Z,15.91
2022-08-11T15:23:54.285Z,15.92
2022-08-11T15:26:46.056Z,15.91
2022-08-11T15:29:34.015Z,15.46
2022-08-11T15:32:26.516Z,15.68
2022-08-11T15:35:18.199Z,15.43
2022-08-11T15:37:54.996Z,15.66
2022-08-11T15:40:46.592Z,16.90
2022-08-11T15:43:41.940Z,16.29
2022-08-11T15:46:17.819Z,16.29
2022-08-11T15:48:53.369Z,16.11
2022-08-11T15:51:31.865Z,15.87
2022-08-11T15:54:09.204Z,15.83
2022-08-11T15:56:43.963Z,15.61
2022-08-11T15:59:42.423Z,15.92
2022-08-11T16:02:33.975Z,15.95
2022-08-11T16:05:09.600Z,15.89
2022-08-11T16:07:40.885Z,16.41
2022-08-11T16:10:18.977Z,16.93
2022-08-11T16:13:12.803Z,17.22
2022-08-11T16:16:06.309Z,17.22
2022-08-11T16:18:42.906Z,17.82
2022-08-11T16:21:26.761Z,17.91
2022-08-11T16:24:08.915Z,18.29
2022-08-11T16:27:07.748Z,18.54
2022-08-11T16:29:45.412Z,18.53
2022-08-11T16:32:18.655Z,18.61
2022-08-11T16:35:11.483Z,18.85
2022-08-11T16:38:00.699Z,18.61
2022-08-11T16:40:31.888Z,19.19
2022-08-11T16:43:20.474Z,19.25
2022-08-11T16:46:08.298Z,19.55
2022-08-11T16:48:41.444Z,20.44
2022-08-11T16:51:14.573Z,20.76
2022-08-11T16:54:04.436Z,21.01
2022-08-11T16:56:48.080Z,21.21
2022-08-11T16:59:20.657Z,20.95
2022-08-11T17:01:54.459Z,21.07
2022-08-11T17:04:55.599Z,21.38
2022-08-11T17:07:44.971Z,21.37
2022-08-11T17:10:52.825Z,21.27
2022-08-11T17:13:32.945Z,21.27
2022-08-11T17:16:08.976Z,21.48
2022-08-11T17:18:47.052Z,21.05
2022-08-11T17:21:22.766Z,21.22
2022-08-11T17:23:56.164Z,21.05
2022-08-11T17:26:47.596Z,20.37
2022-08-11T17:29:22.709Z,20.56
2022-08-11T17:32:10.223Z,20.36
2022-08-11T17:34:58.853Z,20.67
2022-08-11T17:37:30.707Z,20.89
2022-08-11T17:40:02.536Z,21.05
2022-08-11T17:42:52.027Z,21.17
2022-08-11T17:45:41.651Z,21.19
2022-08-11T17:48:27.648Z,21.38
2022-08-11T17:51:01.270Z,21.55
2022-08-11T17:54:18.188Z,21.66
2022-08-11T17:57:02.148Z,21.87
2022-08-11T17:59:53.254Z,22.15
2022-08-11T18:02:47.449Z,22.38
2022-08-11T18:05:19.825Z,22.31
2022-08-11T18:08:10.195Z,21.72
2022-08-11T18:10:59.350Z,21.92
2022-08-11T18:13:49.491Z,22.19
2022-08-11T18:16:38.487Z,22.46
2022-08-11T18:19:26.879Z,22.98
2022-08-11T18:22:20.601Z,23.27
2022-08-11T18:25:13.188Z,23.28
2022-08-11T18:28:03.310Z,24.08
2022-08-11T18:31:03.255Z,24.13
2022-08-11T18:34:08.308Z,24.86
2022-08-11T18:36:59.124Z,24.57
2022-08-11T18:39:54.495Z,24.52
2022-08-11T18:42:43.681Z,24.79
2022-08-11T18:45:45.908Z,25.12
2022-08-11T18:48:38.418Z,25.33
2022-08-11T18:51:36.816Z,25.58
2022-08-11T18:54:30.309Z,25.93
2022-08-11T18:57:21.424Z,26.02
2022-08-11T19:00:09.494Z,26.02
2022-08-11T19:02:59.044Z,26.27
2022-08-11T19:06:36.107Z,26.48
2022-08-11T19:09:05.025Z,26.75
2022-08-11T19:11:53.382Z,26.59
2022-08-11T19:14:41.550Z,27.02
2022-08-11T19:17:44.746Z,27.28
2022-08-11T19:20:36.860Z,27.55
2022-08-11T19:23:26.445Z,27.90
2022-08-11T19:26:17.757Z,28.08
2022-08-11T19:29:08.416Z,28.32
2022-08-11T19:31:56.979Z,28.65
2022-08-11T19:34:45.941Z,28.90
2022-08-11T19:37:32.937Z,28.85
2022-08-11T19:40:26.136Z,29.06
2022-08-11T19:43:26.293Z,28.79
2022-08-11T19:46:17.238Z,29.46
2022-08-11T19:49:08.338Z,29.35
2022-08-11T19:51:57.002Z,29.50
2022-08-11T19:54:46.436Z,29.76
2022-08-11T19:57:39.276Z,30.23
2022-08-11T20:00:33.822Z,30.21
2022-08-11T20:03:24.453Z,30.60
2022-08-11T20:06:13.659Z,30.53
2022-08-11T20:09:04.378Z,30.83
2022-08-11T20:11:56.131Z,31.02
2022-08-11T20:14:45.791Z,31.29
2022-08-11T20:17:35.458Z,31.65
2022-08-11T20:20:27.534Z,31.96
2022-08-11T20:23:19.452Z,31.91
2022-08-11T20:26:29.648Z,31.91
2022-08-11T20:29:16.345Z,31.96
2022-08-11T20:32:08.395Z,31.90
2022-08-11T20:35:00.977Z,32.31
2022-08-11T20:37:51.227Z,32.22
2022-08-11T20:40:43.777Z,32.37
2022-08-11T20:44:06.087Z,32.31
2022-08-11T20:46:42.557Z,32.11
2022-08-11T20:49:40.873Z,32.26
2022-08-11T20:52:40.275Z,32.31
2022-08-11T20:55:51.445Z,32.36
2022-08-11T20:59:10.994Z,32.31
2022-08-11T21:01:45.337Z,32.63
2022-08-11T21:04:32.768Z,32.63
2022-08-11T21:07:28.464Z,32.66
2022-08-11T21:10:31.180Z,32.77
2022-08-11T21:13:26.998Z,32.90
2022-08-11T21:16:25.337Z,33.32
2022-08-11T21:19:55.013Z,33.07
2022-08-11T21:22:37.316Z,33.16
2022-08-11T21:25:27.162Z,33.24
2022-08-11T21:28:20.995Z,33.44
2022-08-11T21:31:09.123Z,33.63
2022-08-11T21:34:00.471Z,33.79
2022-08-11T21:36:48.076Z,33.98
2022-08-11T21:39:40.488Z,34.12
2022-08-11T21:42:29.658Z,34.17
2022-08-11T21:45:19.995Z,34.66
2022-08-11T21:48:08.577Z,34.59
2022-08-11T21:50:55.581Z,34.89
2022-08-11T21:53:42.722Z,34.96
2022-08-11T21:56:31.310Z,35.23
2022-08-11T21:59:18.851Z,35.59
2022-08-11T22:02:12.402Z,36.11
2022-08-11T22:05:00.919Z,36.21
2022-08-11T22:07:48.332Z,36.48
2022-08-11T22:10:41.862Z,36.90
2022-08-11T22:13:31.176Z,37.61
2022-08-11T22:16:18.196Z,37.82
2022-08-11T22:19:08.630Z,38.19
2022-08-11T22:22:02.479Z,38.63
2022-08-11T22:24:53.058Z,38.87
2022-08-11T22:27:40.783Z,39.38
2022-08-11T22:30:29.691Z,39.66
2022-08-11T22:33:26.968Z,39.80
2022-08-11T22:36:19.333Z,40.02
2022-08-11T22:39:11.802Z,40.38
2022-08-11T22:41:58.819Z,40.27
2022-08-11T22:44:48.589Z,40.43
2022-08-11T22:47:40.734Z,40.48
2022-08-11T22:50:28.995Z,40.39
2022-08-11T22:53:18.163Z,40.44
2022-08-11T22:56:06.960Z,40.33
2022-08-11T22:58:53.943Z,40.39
2022-08-11T23:01:56.440Z,40.53
2022-08-11T23:04:45.369Z,40.29
2022-08-11T23:07:51.119Z,40.23
2022-08-11T23:10:41.061Z,40.40
2022-08-11T23:13:28.498Z,40.96
2022-08-11T23:16:16.989Z,40.99
2022-08-11T23:19:04.358Z,41.29
2022-08-11T23:21:52.897Z,41.85
2022-08-11T23:24:40.442Z,42.05
2022-08-11T23:27:30.832Z,42.68
2022-08-11T23:30:19.312Z,43.00
2022-08-11T23:33:11.411Z,43.92
2022-08-11T23:36:04.469Z,45.14
2022-08-11T23:38:52.753Z,46.01
2022-08-11T23:41:40.889Z,47.82
2022-08-11T23:44:29.118Z,48.05
2022-08-11T23:47:19.534Z,49.12
2022-08-11T23:50:07.062Z,49.19
2022-08-11T23:52:54.636Z,49.36
2022-08-11T23:55:41.424Z,49.92
2022-08-11T23:58:29.198Z,50.02
